sensor_id;sensor_type;location;lat;lon;timestamp;P1;durP1;ratioP1;P2;durP2;ratioP2
23782;SDS011;12071;50.850;4.446;2022-12-07T00:01:25;19.33;;;13.45;;
23782;SDS011;12071;50.850;4.446;2022-12-07T00:04:00;21.45;;;14.05;;
23782;SDS011;12071;50.850;4.446;2022-12-07T00:06:35;22.17;;;15.30;;
23782;SDS011;12071;50.850;4.446;2022-12-07T00:09:02;22.02;;;14.13;;
23782;SDS011;12071;50.850;4.446;2022-12-07T00:11:30;21.50;;;14.52;;
23782;SDS011;12071;50.850;4.446;2022-12-07T00:13:57;22.45;;;15.00;;
23782;SDS011;12071;50.850;4.446;2022-12-07T00:16:25;24.40;;;16.42;;
23782;SDS011;12071;50.850;4.446;2022-12-07T00:18:53;22.70;;;15.55;;
23782;SDS011;12071;50.850;4.446;2022-12-07T00:21:23;25.40;;;17.27;;
23782;SDS011;12071;50.850;4.446;2022-12-07T00:23:50;26.20;;;17.13;;
23782;SDS011;12071;50.850;4.446;2022-12-07T00:26:18;25.95;;;17.88;;
23782;SDS011;12071;50.850;4.446;2022-12-07T00:28:47;24.67;;;17.60;;
23782;SDS011;12071;50.850;4.446;2022-12-07T00:31:14;26.13;;;16.45;;
23782;SDS011;12071;50.850;4.446;2022-12-07T00:33:42;29.60;;;17.45;;
23782;SDS011;12071;50.850;4.446;2022-12-07T00:36:09;24.35;;;17.52;;
23782;SDS011;12071;50.850;4.446;2022-12-07T00:38:37;24.45;;;16.65;;
23782;SDS011;12071;50.850;4.446;2022-12-07T00:41:04;27.40;;;17.25;;
23782;SDS011;12071;50.850;4.446;2022-12-07T00:43:32;25.63;;;17.92;;
23782;SDS011;12071;50.850;4.446;2022-12-07T00:45:58;26.63;;;17.70;;
23782;SDS011;12071;50.850;4.446;2022-12-07T00:48:24;26.02;;;18.30;;
23782;SDS011;12071;50.850;4.446;2022-12-07T00:50:50;30.25;;;18.77;;
23782;SDS011;12071;50.850;4.446;2022-12-07T00:53:16;28.15;;;19.60;;
23782;SDS011;12071;50.850;4.446;2022-12-07T00:55:42;30.95;;;19.30;;
23782;SDS011;12071;50.850;4.446;2022-12-07T00:58:08;31.83;;;19.50;;
23782;SDS011;12071;50.850;4.446;2022-12-07T01:00:35;29.45;;;18.88;;
23782;SDS011;12071;50.850;4.446;2022-12-07T01:03:01;34.60;;;20.30;;
23782;SDS011;12071;50.850;4.446;2022-12-07T01:05:27;28.55;;;19.85;;
23782;SDS011;12071;50.850;4.446;2022-12-07T01:07:53;31.13;;;20.17;;
23782;SDS011;12071;50.850;4.446;2022-12-07T01:10:18;32.75;;;20.45;;
23782;SDS011;12071;50.850;4.446;2022-12-07T01:12:44;31.15;;;20.63;;
23782;SDS011;12071;50.850;4.446;2022-12-07T01:15:10;31.95;;;21.85;;
23782;SDS011;12071;50.850;4.446;2022-12-07T01:17:35;37.10;;;23.13;;
23782;SDS011;12071;50.850;4.446;2022-12-07T01:20:01;32.97;;;21.38;;
23782;SDS011;12071;50.850;4.446;2022-12-07T01:22:28;32.83;;;21.02;;
23782;SDS011;12071;50.850;4.446;2022-12-07T01:24:53;32.92;;;21.98;;
23782;SDS011;12071;50.850;4.446;2022-12-07T01:27:19;33.15;;;21.65;;
23782;SDS011;12071;50.850;4.446;2022-12-07T01:29:44;32.22;;;21.48;;
23782;SDS011;12071;50.850;4.446;2022-12-07T01:32:10;31.92;;;21.67;;
23782;SDS011;12071;50.850;4.446;2022-12-07T01:34:36;34.83;;;22.88;;
23782;SDS011;12071;50.850;4.446;2022-12-07T01:37:02;35.13;;;20.80;;
23782;SDS011;12071;50.850;4.446;2022-12-07T01:39:27;31.67;;;21.95;;
23782;SDS011;12071;50.850;4.446;2022-12-07T01:41:54;37.33;;;24.10;;
23782;SDS011;12071;50.850;4.446;2022-12-07T01:44:26;35.15;;;23.83;;
23782;SDS011;12071;50.850;4.446;2022-12-07T01:46:55;37.20;;;23.50;;
23782;SDS011;12071;50.850;4.446;2022-12-07T01:49:33;36.85;;;22.48;;
23782;SDS011;12071;50.850;4.446;2022-12-07T01:54:48;35.55;;;22.80;;
23782;SDS011;12071;50.850;4.446;2022-12-07T01:57:16;35.63;;;22.63;;
23782;SDS011;12071;50.850;4.446;2022-12-07T01:59:43;40.08;;;22.38;;
23782;SDS011;12071;50.850;4.446;2022-12-07T02:02:18;33.35;;;21.58;;
23782;SDS011;12071;50.850;4.446;2022-12-07T02:04:56;33.45;;;21.67;;
23782;SDS011;12071;50.850;4.446;2022-12-07T02:07:23;32.65;;;21.90;;
23782;SDS011;12071;50.850;4.446;2022-12-07T02:09:51;37.55;;;21.85;;
23782;SDS011;12071;50.850;4.446;2022-12-07T02:12:17;29.98;;;21.15;;
23782;SDS011;12071;50.850;4.446;2022-12-07T02:14:43;33.42;;;21.95;;
23782;SDS011;12071;50.850;4.446;2022-12-07T02:25:13;29.10;;;19.45;;
23782;SDS011;12071;50.850;4.446;2022-12-07T02:30:42;29.40;;;18.40;;
23782;SDS011;12071;50.850;4.446;2022-12-07T02:33:24;30.55;;;18.70;;
23782;SDS011;12071;50.850;4.446;2022-12-07T02:41:04;28.48;;;18.88;;
23782;SDS011;12071;50.850;4.446;2022-12-07T02:43:42;30.00;;;19.65;;
23782;SDS011;12071;50.850;4.446;2022-12-07T02:46:17;29.25;;;19.38;;
23782;SDS011;12071;50.850;4.446;2022-12-07T02:48:46;30.30;;;19.67;;
23782;SDS011;12071;50.850;4.446;2022-12-07T02:51:12;29.55;;;19.95;;
23782;SDS011;12071;50.850;4.446;2022-12-07T02:53:39;28.60;;;19.85;;
23782;SDS011;12071;50.850;4.446;2022-12-07T02:58:54;30.38;;;18.38;;
23782;SDS011;12071;50.850;4.446;2022-12-07T03:10:07;32.03;;;18.20;;
23782;SDS011;12071;50.850;4.446;2022-12-07T03:12:46;29.67;;;18.90;;
23782;SDS011;12071;50.850;4.446;2022-12-07T03:18:09;29.80;;;17.65;;
23782;SDS011;12071;50.850;4.446;2022-12-07T03:20:37;30.80;;;18.00;;
23782;SDS011;12071;50.850;4.446;2022-12-07T03:23:06;26.92;;;17.20;;
23782;SDS011;12071;50.850;4.446;2022-12-07T03:25:34;26.13;;;17.73;;
23782;SDS011;12071;50.850;4.446;2022-12-07T03:28:05;31.57;;;17.40;;
23782;SDS011;12071;50.850;4.446;2022-12-07T03:33:14;27.58;;;17.02;;
23782;SDS011;12071;50.850;4.446;2022-12-07T03:35:56;23.27;;;15.43;;
23782;SDS011;12071;50.850;4.446;2022-12-07T03:38:45;27.45;;;16.25;;
23782;SDS011;12071;50.850;4.446;2022-12-07T03:41:16;24.65;;;15.88;;
23782;SDS011;12071;50.850;4.446;2022-12-07T03:43:48;25.95;;;16.33;;
23782;SDS011;12071;50.850;4.446;2022-12-07T03:46:23;26.05;;;15.63;;
23782;SDS011;12071;50.850;4.446;2022-12-07T03:49:11;26.75;;;16.15;;
23782;SDS011;12071;50.850;4.446;2022-12-07T03:51:49;23.15;;;16.38;;
23782;SDS011;12071;50.850;4.446;2022-12-07T03:55:05;28.50;;;17.08;;
23782;SDS011;12071;50.850;4.446;2022-12-07T03:57:14;26.20;;;16.83;;
23782;SDS011;12071;50.850;4.446;2022-12-07T03:59:40;28.55;;;15.95;;
23782;SDS011;12071;50.850;4.446;2022-12-07T04:02:09;25.90;;;16.15;;
23782;SDS011;12071;50.850;4.446;2022-12-07T04:04:37;28.38;;;17.48;;
23782;SDS011;12071;50.850;4.446;2022-12-07T04:07:03;28.33;;;17.42;;
23782;SDS011;12071;50.850;4.446;2022-12-07T04:09:29;27.70;;;17.17;;
23782;SDS011;12071;50.850;4.446;2022-12-07T04:11:54;26.40;;;16.83;;
23782;SDS011;12071;50.850;4.446;2022-12-07T04:14:20;26.95;;;16.80;;
23782;SDS011;12071;50.850;4.446;2022-12-07T04:19:16;25.00;;;16.33;;
23782;SDS011;12071;50.850;4.446;2022-12-07T04:21:44;25.77;;;16.67;;
23782;SDS011;12071;50.850;4.446;2022-12-07T04:24:09;25.02;;;17.90;;
23782;SDS011;12071;50.850;4.446;2022-12-07T04:26:38;27.92;;;18.48;;
23782;SDS011;12071;50.850;4.446;2022-12-07T04:29:04;28.55;;;17.80;;
23782;SDS011;12071;50.850;4.446;2022-12-07T04:31:30;33.65;;;18.15;;
23782;SDS011;12071;50.850;4.446;2022-12-07T04:33:55;28.20;;;18.40;;
23782;SDS011;12071;50.850;4.446;2022-12-07T04:36:21;33.35;;;18.77;;
23782;SDS011;12071;50.850;4.446;2022-12-07T04:38:47;33.83;;;19.17;;
23782;SDS011;12071;50.850;4.446;2022-12-07T04:41:12;33.67;;;22.23;;
23782;SDS011;12071;50.850;4.446;2022-12-07T04:43:38;34.15;;;20.75;;
23782;SDS011;12071;50.850;4.446;2022-12-07T04:46:04;34.50;;;20.77;;
23782;SDS011;12071;50.850;4.446;2022-12-07T04:48:30;32.08;;;19.02;;
23782;SDS011;12071;50.850;4.446;2022-12-07T04:50:55;29.27;;;18.60;;
23782;SDS011;12071;50.850;4.446;2022-12-07T04:53:21;32.85;;;18.55;;
23782;SDS011;12071;50.850;4.446;2022-12-07T04:55:47;29.85;;;18.85;;
23782;SDS011;12071;50.850;4.446;2022-12-07T04:58:13;27.20;;;18.70;;
23782;SDS011;12071;50.850;4.446;2022-12-07T05:00:38;29.20;;;18.88;;
23782;SDS011;12071;50.850;4.446;2022-12-07T05:03:05;33.25;;;20.05;;
23782;SDS011;12071;50.850;4.446;2022-12-07T05:05:31;33.35;;;21.35;;
23782;SDS011;12071;50.850;4.446;2022-12-07T05:07:57;38.03;;;22.75;;
23782;SDS011;12071;50.850;4.446;2022-12-07T05:10:22;36.22;;;23.33;;
23782;SDS011;12071;50.850;4.446;2022-12-07T05:12:48;30.15;;;20.98;;
23782;SDS011;12071;50.850;4.446;2022-12-07T05:15:14;39.72;;;21.15;;
23782;SDS011;12071;50.850;4.446;2022-12-07T05:17:40;38.63;;;23.10;;
23782;SDS011;12071;50.850;4.446;2022-12-07T05:20:06;33.65;;;22.35;;
23782;SDS011;12071;50.850;4.446;2022-12-07T05:22:32;39.05;;;23.52;;
23782;SDS011;12071;50.850;4.446;2022-12-07T05:25:02;37.45;;;22.77;;
23782;SDS011;12071;50.850;4.446;2022-12-07T05:27:27;32.72;;;22.30;;
23782;SDS011;12071;50.850;4.446;2022-12-07T05:29:53;38.03;;;23.30;;
23782;SDS011;12071;50.850;4.446;2022-12-07T05:32:20;35.60;;;23.65;;
23782;SDS011;12071;50.850;4.446;2022-12-07T05:34:46;36.33;;;23.80;;
23782;SDS011;12071;50.850;4.446;2022-12-07T05:37:11;38.15;;;23.08;;
23782;SDS011;12071;50.850;4.446;2022-12-07T05:39:37;37.50;;;23.75;;
23782;SDS011;12071;50.850;4.446;2022-12-07T05:42:05;42.58;;;23.77;;
23782;SDS011;12071;50.850;4.446;2022-12-07T05:44:41;39.05;;;23.70;;
23782;SDS011;12071;50.850;4.446;2022-12-07T05:47:08;35.15;;;23.73;;
23782;SDS011;12071;50.850;4.446;2022-12-07T05:49:34;39.05;;;22.80;;
23782;SDS011;12071;50.850;4.446;2022-12-07T05:52:00;36.55;;;21.65;;
23782;SDS011;12071;50.850;4.446;2022-12-07T05:54:26;30.30;;;20.15;;
23782;SDS011;12071;50.850;4.446;2022-12-07T05:56:51;35.08;;;19.63;;
23782;SDS011;12071;50.850;4.446;2022-12-07T05:59:17;32.83;;;19.50;;
23782;SDS011;12071;50.850;4.446;2022-12-07T06:01:52;30.08;;;18.83;;
23782;SDS011;12071;50.850;4.446;2022-12-07T06:04:20;28.75;;;18.88;;
23782;SDS011;12071;50.850;4.446;2022-12-07T06:06:46;32.58;;;19.83;;
23782;SDS011;12071;50.850;4.446;2022-12-07T06:09:13;32.00;;;19.50;;
23782;SDS011;12071;50.850;4.446;2022-12-07T06:11:39;28.92;;;19.02;;
23782;SDS011;12071;50.850;4.446;2022-12-07T06:14:24;27.05;;;18.80;;
23782;SDS011;12071;50.850;4.446;2022-12-07T06:16:49;29.33;;;18.70;;
23782;SDS011;12071;50.850;4.446;2022-12-07T06:19:15;28.70;;;17.45;;
23782;SDS011;12071;50.850;4.446;2022-12-07T06:21:41;27.02;;;16.45;;
23782;SDS011;12071;50.850;4.446;2022-12-07T06:24:07;31.55;;;17.58;;
23782;SDS011;12071;50.850;4.446;2022-12-07T06:26:33;28.90;;;16.33;;
23782;SDS011;12071;50.850;4.446;2022-12-07T06:28:59;24.42;;;17.05;;
23782;SDS011;12071;50.850;4.446;2022-12-07T06:31:25;25.63;;;16.95;;
23782;SDS011;12071;50.850;4.446;2022-12-07T06:33:50;25.90;;;16.02;;
23782;SDS011;12071;50.850;4.446;2022-12-07T06:36:16;28.42;;;15.95;;
23782;SDS011;12071;50.850;4.446;2022-12-07T06:38:42;27.40;;;16.05;;
23782;SDS011;12071;50.850;4.446;2022-12-07T06:41:07;25.60;;;15.32;;
23782;SDS011;12071;50.850;4.446;2022-12-07T06:43:33;25.40;;;16.02;;
23782;SDS011;12071;50.850;4.446;2022-12-07T06:45:59;31.60;;;17.23;;
23782;SDS011;12071;50.850;4.446;2022-12-07T06:48:24;29.65;;;17.55;;
23782;SDS011;12071;50.850;4.446;2022-12-07T06:50:50;27.70;;;18.85;;
23782;SDS011;12071;50.850;4.446;2022-12-07T06:53:15;30.25;;;19.30;;
23782;SDS011;12071;50.850;4.446;2022-12-07T06:55:41;29.70;;;18.52;;
23782;SDS011;12071;50.850;4.446;2022-12-07T06:58:07;32.92;;;17.95;;
23782;SDS011;12071;50.850;4.446;2022-12-07T07:00:33;32.15;;;17.20;;
23782;SDS011;12071;50.850;4.446;2022-12-07T07:03:00;28.25;;;17.67;;
23782;SDS011;12071;50.850;4.446;2022-12-07T07:05:26;31.98;;;16.40;;
23782;SDS011;12071;50.850;4.446;2022-12-07T07:07:51;31.92;;;19.30;;
23782;SDS011;12071;50.850;4.446;2022-12-07T07:10:17;30.70;;;18.13;;
23782;SDS011;12071;50.850;4.446;2022-12-07T07:12:43;32.92;;;18.60;;
23782;SDS011;12071;50.850;4.446;2022-12-07T07:15:08;32.78;;;18.02;;
23782;SDS011;12071;50.850;4.446;2022-12-07T07:17:36;30.15;;;17.23;;
23782;SDS011;12071;50.850;4.446;2022-12-07T07:20:03;22.45;;;15.98;;
23782;SDS011;12071;50.850;4.446;2022-12-07T07:22:29;22.73;;;16.20;;
23782;SDS011;12071;50.850;4.446;2022-12-07T07:24:56;27.95;;;15.95;;
23782;SDS011;12071;50.850;4.446;2022-12-07T07:27:22;22.75;;;14.88;;
23782;SDS011;12071;50.850;4.446;2022-12-07T07:29:48;25.15;;;16.30;;
23782;SDS011;12071;50.850;4.446;2022-12-07T07:32:13;27.92;;;17.35;;
23782;SDS011;12071;50.850;4.446;2022-12-07T07:34:39;32.85;;;20.27;;
23782;SDS011;12071;50.850;4.446;2022-12-07T07:37:06;27.80;;;17.80;;
23782;SDS011;12071;50.850;4.446;2022-12-07T07:39:32;29.33;;;17.52;;
23782;SDS011;12071;50.850;4.446;2022-12-07T07:41:57;29.55;;;18.58;;
23782;SDS011;12071;50.850;4.446;2022-12-07T07:44:23;27.05;;;17.50;;
23782;SDS011;12071;50.850;4.446;2022-12-07T07:46:49;31.88;;;18.02;;
23782;SDS011;12071;50.850;4.446;2022-12-07T07:49:14;29.95;;;17.50;;
23782;SDS011;12071;50.850;4.446;2022-12-07T07:51:40;27.45;;;18.00;;
23782;SDS011;12071;50.850;4.446;2022-12-07T07:54:05;29.52;;;17.58;;
23782;SDS011;12071;50.850;4.446;2022-12-07T07:56:31;31.13;;;19.67;;
23782;SDS011;12071;50.850;4.446;2022-12-07T07:58:56;35.83;;;19.83;;
23782;SDS011;12071;50.850;4.446;2022-12-07T08:01:22;44.13;;;22.50;;
23782;SDS011;12071;50.850;4.446;2022-12-07T08:03:48;40.80;;;20.13;;
23782;SDS011;12071;50.850;4.446;2022-12-07T08:06:13;31.08;;;17.30;;
23782;SDS011;12071;50.850;4.446;2022-12-07T08:08:39;28.83;;;17.40;;
23782;SDS011;12071;50.850;4.446;2022-12-07T08:11:05;34.70;;;16.25;;
23782;SDS011;12071;50.850;4.446;2022-12-07T08:13:31;31.38;;;17.10;;
23782;SDS011;12071;50.850;4.446;2022-12-07T08:15:57;26.38;;;15.65;;
23782;SDS011;12071;50.850;4.446;2022-12-07T08:18:23;28.42;;;18.15;;
23782;SDS011;12071;50.850;4.446;2022-12-07T08:20:48;31.00;;;17.70;;
23782;SDS011;12071;50.850;4.446;2022-12-07T08:23:14;32.22;;;18.80;;
23782;SDS011;12071;50.850;4.446;2022-12-07T08:25:39;29.67;;;18.55;;
23782;SDS011;12071;50.850;4.446;2022-12-07T08:28:05;33.38;;;20.02;;
23782;SDS011;12071;50.850;4.446;2022-12-07T08:30:31;34.00;;;20.02;;
23782;SDS011;12071;50.850;4.446;2022-12-07T08:32:58;31.85;;;19.92;;
23782;SDS011;12071;50.850;4.446;2022-12-07T08:35:25;32.15;;;20.40;;
23782;SDS011;12071;50.850;4.446;2022-12-07T08:37:51;36.50;;;20.45;;
23782;SDS011;12071;50.850;4.446;2022-12-07T08:40:16;39.10;;;20.42;;
23782;SDS011;12071;50.850;4.446;2022-12-07T08:42:44;38.47;;;20.52;;
23782;SDS011;12071;50.850;4.446;2022-12-07T08:45:14;39.88;;;21.58;;
23782;SDS011;12071;50.850;4.446;2022-12-07T08:47:41;35.83;;;20.92;;
23782;SDS011;12071;50.850;4.446;2022-12-07T08:50:11;36.63;;;21.17;;
23782;SDS011;12071;50.850;4.446;2022-12-07T08:52:38;33.55;;;22.02;;
23782;SDS011;12071;50.850;4.446;2022-12-07T08:55:06;39.10;;;22.17;;
23782;SDS011;12071;50.850;4.446;2022-12-07T08:57:34;37.50;;;22.58;;
23782;SDS011;12071;50.850;4.446;2022-12-07T09:00:01;35.17;;;22.85;;
23782;SDS011;12071;50.850;4.446;2022-12-07T09:02:28;32.97;;;20.80;;
23782;SDS011;12071;50.850;4.446;2022-12-07T09:04:56;28.75;;;19.40;;
23782;SDS011;12071;50.850;4.446;2022-12-07T09:07:21;29.90;;;17.65;;
23782;SDS011;12071;50.850;4.446;2022-12-07T09:09:47;26.23;;;17.38;;
23782;SDS011;12071;50.850;4.446;2022-12-07T09:12:13;28.00;;;16.15;;
23782;SDS011;12071;50.850;4.446;2022-12-07T09:14:38;21.13;;;14.77;;
23782;SDS011;12071;50.850;4.446;2022-12-07T09:17:05;22.60;;;14.80;;
23782;SDS011;12071;50.850;4.446;2022-12-07T09:19:32;19.90;;;12.85;;
23782;SDS011;12071;50.850;4.446;2022-12-07T09:21:57;20.48;;;12.55;;
23782;SDS011;12071;50.850;4.446;2022-12-07T09:24:23;18.92;;;11.60;;
23782;SDS011;12071;50.850;4.446;2022-12-07T09:26:48;19.05;;;10.82;;
23782;SDS011;12071;50.850;4.446;2022-12-07T09:29:14;19.67;;;10.52;;
23782;SDS011;12071;50.850;4.446;2022-12-07T09:31:40;16.77;;;9.57;;
23782;SDS011;12071;50.850;4.446;2022-12-07T09:34:05;15.60;;;8.60;;
23782;SDS011;12071;50.850;4.446;2022-12-07T09:36:32;17.33;;;8.85;;
23782;SDS011;12071;50.850;4.446;2022-12-07T09:38:58;18.40;;;9.10;;
23782;SDS011;12071;50.850;4.446;2022-12-07T09:41:26;14.40;;;8.43;;
23782;SDS011;12071;50.850;4.446;2022-12-07T09:44:03;17.98;;;8.00;;
23782;SDS011;12071;50.850;4.446;2022-12-07T09:46:33;19.35;;;7.40;;
23782;SDS011;12071;50.850;4.446;2022-12-07T09:49:04;15.38;;;7.25;;
23782;SDS011;12071;50.850;4.446;2022-12-07T09:51:34;17.85;;;7.20;;
23782;SDS011;12071;50.850;4.446;2022-12-07T09:53:59;19.17;;;6.70;;
23782;SDS011;12071;50.850;4.446;2022-12-07T09:56:28;16.08;;;7.00;;
23782;SDS011;12071;50.850;4.446;2022-12-07T09:58:59;13.93;;;6.68;;
23782;SDS011;12071;50.850;4.446;2022-12-07T10:01:27;9.98;;;6.07;;
23782;SDS011;12071;50.850;4.446;2022-12-07T10:03:59;12.13;;;6.13;;
23782;SDS011;12071;50.850;4.446;2022-12-07T10:06:39;11.00;;;6.72;;
23782;SDS011;12071;50.850;4.446;2022-12-07T10:09:11;11.43;;;6.30;;
23782;SDS011;12071;50.850;4.446;2022-12-07T10:12:12;13.68;;;6.47;;
23782;SDS011;12071;50.850;4.446;2022-12-07T10:14:35;14.35;;;6.68;;
23782;SDS011;12071;50.850;4.446;2022-12-07T10:17:05;10.93;;;6.10;;
23782;SDS011;12071;50.850;4.446;2022-12-07T10:22:53;15.13;;;7.43;;
23782;SDS011;12071;50.850;4.446;2022-12-07T10:25:33;16.10;;;8.02;;
23782;SDS011;12071;50.850;4.446;2022-12-07T10:28:11;14.95;;;7.35;;
23782;SDS011;12071;50.850;4.446;2022-12-07T10:38:51;13.68;;;6.70;;
23782;SDS011;12071;50.850;4.446;2022-12-07T10:41:25;15.05;;;6.60;;
23782;SDS011;12071;50.850;4.446;2022-12-07T10:43:52;11.23;;;6.57;;
23782;SDS011;12071;50.850;4.446;2022-12-07T10:46:42;17.63;;;7.07;;
23782;SDS011;12071;50.850;4.446;2022-12-07T10:49:41;15.57;;;7.15;;
23782;SDS011;12071;50.850;4.446;2022-12-07T10:55:22;21.35;;;7.43;;
23782;SDS011;12071;50.850;4.446;2022-12-07T11:04:06;12.05;;;6.45;;
23782;SDS011;12071;50.850;4.446;2022-12-07T11:27:36;12.88;;;5.15;;
23782;SDS011;12071;50.850;4.446;2022-12-07T11:32:51;9.60;;;5.75;;
23782;SDS011;12071;50.850;4.446;2022-12-07T11:38:12;10.13;;;5.65;;
23782;SDS011;12071;50.850;4.446;2022-12-07T11:40:49;15.77;;;5.70;;
23782;SDS011;12071;50.850;4.446;2022-12-07T11:43:26;17.98;;;6.30;;
23782;SDS011;12071;50.850;4.446;2022-12-07T11:48:29;13.15;;;6.13;;
23782;SDS011;12071;50.850;4.446;2022-12-07T11:51:00;11.00;;;4.90;;
23782;SDS011;12071;50.850;4.446;2022-12-07T11:53:33;12.52;;;5.50;;
23782;SDS011;12071;50.850;4.446;2022-12-07T11:56:07;9.73;;;4.75;;
23782;SDS011;12071;50.850;4.446;2022-12-07T12:04:02;10.55;;;4.65;;
23782;SDS011;12071;50.850;4.446;2022-12-07T12:06:35;9.93;;;4.75;;
23782;SDS011;12071;50.850;4.446;2022-12-07T12:09:05;11.43;;;3.80;;
23782;SDS011;12071;50.850;4.446;2022-12-07T12:17:50;6.63;;;3.53;;
23782;SDS011;12071;50.850;4.446;2022-12-07T12:20:31;7.10;;;3.30;;
23782;SDS011;12071;50.850;4.446;2022-12-07T12:23:13;5.53;;;3.00;;
23782;SDS011;12071;50.850;4.446;2022-12-07T12:25:45;7.30;;;3.38;;
23782;SDS011;12071;50.850;4.446;2022-12-07T12:28:19;7.60;;;3.30;;
23782;SDS011;12071;50.850;4.446;2022-12-07T12:33:56;8.18;;;3.53;;
23782;SDS011;12071;50.850;4.446;2022-12-07T12:39:18;8.35;;;2.90;;
23782;SDS011;12071;50.850;4.446;2022-12-07T12:46:47;7.05;;;2.97;;
23782;SDS011;12071;50.850;4.446;2022-12-07T12:49:34;7.07;;;2.30;;
23782;SDS011;12071;50.850;4.446;2022-12-07T12:57:35;5.00;;;1.80;;
23782;SDS011;12071;50.850;4.446;2022-12-07T13:00:14;7.22;;;1.85;;
23782;SDS011;12071;50.850;4.446;2022-12-07T13:05:19;4.05;;;1.70;;
23782;SDS011;12071;50.850;4.446;2022-12-07T13:15:37;9.73;;;2.22;;
23782;SDS011;12071;50.850;4.446;2022-12-07T13:23:31;6.30;;;2.67;;
23782;SDS011;12071;50.850;4.446;2022-12-07T13:31:44;8.93;;;3.10;;
23782;SDS011;12071;50.850;4.446;2022-12-07T13:39:47;5.93;;;2.80;;
23782;SDS011;12071;50.850;4.446;2022-12-07T13:42:56;9.05;;;2.85;;
23782;SDS011;12071;50.850;4.446;2022-12-07T13:45:22;7.22;;;2.47;;
23782;SDS011;12071;50.850;4.446;2022-12-07T13:48:14;4.32;;;2.30;;
23782;SDS011;12071;50.850;4.446;2022-12-07T13:50:55;8.48;;;2.53;;
23782;SDS011;12071;50.850;4.446;2022-12-07T13:53:24;6.75;;;2.33;;
23782;SDS011;12071;50.850;4.446;2022-12-07T13:55:55;6.70;;;2.55;;
23782;SDS011;12071;50.850;4.446;2022-12-07T13:58:24;7.55;;;2.03;;
23782;SDS011;12071;50.850;4.446;2022-12-07T14:00:53;7.82;;;2.22;;
23782;SDS011;12071;50.850;4.446;2022-12-07T14:03:27;6.32;;;2.17;;
23782;SDS011;12071;50.850;4.446;2022-12-07T14:08:43;7.60;;;2.03;;
23782;SDS011;12071;50.850;4.446;2022-12-07T14:11:19;6.75;;;2.08;;
23782;SDS011;12071;50.850;4.446;2022-12-07T14:16:23;1.85;;;1.27;;
23782;SDS011;12071;50.850;4.446;2022-12-07T14:18:52;5.13;;;1.42;;
23782;SDS011;12071;50.850;4.446;2022-12-07T14:21:20;4.38;;;1.73;;
23782;SDS011;12071;50.850;4.446;2022-12-07T14:26:48;3.88;;;2.38;;
23782;SDS011;12071;50.850;4.446;2022-12-07T14:29:22;3.42;;;2.40;;
23782;SDS011;12071;50.850;4.446;2022-12-07T14:31:48;5.38;;;2.53;;
23782;SDS011;12071;50.850;4.446;2022-12-07T14:34:14;6.22;;;2.50;;
23782;SDS011;12071;50.850;4.446;2022-12-07T14:36:40;4.60;;;2.67;;
23782;SDS011;12071;50.850;4.446;2022-12-07T14:39:05;5.93;;;3.40;;
23782;SDS011;12071;50.850;4.446;2022-12-07T14:41:31;8.23;;;4.07;;
23782;SDS011;12071;50.850;4.446;2022-12-07T14:44:15;5.72;;;4.53;;
23782;SDS011;12071;50.850;4.446;2022-12-07T14:46:41;5.15;;;4.57;;
23782;SDS011;12071;50.850;4.446;2022-12-07T14:49:07;9.25;;;5.32;;
23782;SDS011;12071;50.850;4.446;2022-12-07T14:51:33;8.95;;;5.25;;
23782;SDS011;12071;50.850;4.446;2022-12-07T14:54:02;9.63;;;4.97;;
23782;SDS011;12071;50.850;4.446;2022-12-07T14:56:30;10.07;;;5.70;;
23782;SDS011;12071;50.850;4.446;2022-12-07T14:58:56;11.70;;;4.60;;
23782;SDS011;12071;50.850;4.446;2022-12-07T15:01:22;7.93;;;4.22;;
23782;SDS011;12071;50.850;4.446;2022-12-07T15:03:48;5.25;;;3.40;;
23782;SDS011;12071;50.850;4.446;2022-12-07T15:06:14;8.93;;;3.70;;
23782;SDS011;12071;50.850;4.446;2022-12-07T15:08:42;5.70;;;3.72;;
23782;SDS011;12071;50.850;4.446;2022-12-07T15:11:12;5.18;;;2.30;;
23782;SDS011;12071;50.850;4.446;2022-12-07T15:13:39;9.68;;;3.00;;
23782;SDS011;12071;50.850;4.446;2022-12-07T15:16:23;6.15;;;2.80;;
23782;SDS011;12071;50.850;4.446;2022-12-07T15:18:49;9.50;;;2.90;;
23782;SDS011;12071;50.850;4.446;2022-12-07T15:21:15;6.80;;;2.85;;
23782;SDS011;12071;50.850;4.446;2022-12-07T15:23:41;8.07;;;2.80;;
23782;SDS011;12071;50.850;4.446;2022-12-07T15:26:07;5.70;;;3.85;;
23782;SDS011;12071;50.850;4.446;2022-12-07T15:28:33;5.78;;;3.10;;
23782;SDS011;12071;50.850;4.446;2022-12-07T15:30:58;5.40;;;3.45;;
23782;SDS011;12071;50.850;4.446;2022-12-07T15:33:24;7.70;;;3.22;;
23782;SDS011;12071;50.850;4.446;2022-12-07T15:35:50;6.00;;;2.90;;
23782;SDS011;12071;50.850;4.446;2022-12-07T15:38:15;12.00;;;3.58;;
23782;SDS011;12071;50.850;4.446;2022-12-07T15:40:41;6.88;;;2.65;;
23782;SDS011;12071;50.850;4.446;2022-12-07T15:43:08;7.97;;;2.50;;
23782;SDS011;12071;50.850;4.446;2022-12-07T15:45:54;6.63;;;2.47;;
23782;SDS011;12071;50.850;4.446;2022-12-07T15:48:20;9.48;;;2.72;;
23782;SDS011;12071;50.850;4.446;2022-12-07T15:50:46;5.80;;;2.92;;
23782;SDS011;12071;50.850;4.446;2022-12-07T15:53:12;8.30;;;2.70;;
23782;SDS011;12071;50.850;4.446;2022-12-07T15:55:40;5.57;;;2.50;;
23782;SDS011;12071;50.850;4.446;2022-12-07T15:58:06;10.40;;;3.60;;
23782;SDS011;12071;50.850;4.446;2022-12-07T16:00:32;5.88;;;3.03;;
23782;SDS011;12071;50.850;4.446;2022-12-07T16:02:57;7.82;;;3.55;;
23782;SDS011;12071;50.850;4.446;2022-12-07T16:05:23;7.90;;;3.90;;
23782;SDS011;12071;50.850;4.446;2022-12-07T16:07:51;8.20;;;4.18;;
23782;SDS011;12071;50.850;4.446;2022-12-07T16:10:17;8.02;;;4.30;;
23782;SDS011;12071;50.850;4.446;2022-12-07T16:12:43;5.90;;;3.67;;
23782;SDS011;12071;50.850;4.446;2022-12-07T16:15:08;7.00;;;3.78;;
23782;SDS011;12071;50.850;4.446;2022-12-07T16:17:34;4.13;;;3.13;;
23782;SDS011;12071;50.850;4.446;2022-12-07T16:20:00;5.97;;;3.15;;
23782;SDS011;12071;50.850;4.446;2022-12-07T16:22:25;5.63;;;3.15;;
23782;SDS011;12071;50.850;4.446;2022-12-07T16:24:51;5.40;;;2.97;;
23782;SDS011;12071;50.850;4.446;2022-12-07T16:27:16;6.82;;;3.70;;
23782;SDS011;12071;50.850;4.446;2022-12-07T16:29:42;5.95;;;3.15;;
23782;SDS011;12071;50.850;4.446;2022-12-07T16:32:07;8.23;;;3.35;;
23782;SDS011;12071;50.850;4.446;2022-12-07T16:34:33;8.85;;;3.55;;
23782;SDS011;12071;50.850;4.446;2022-12-07T16:36:59;6.70;;;4.07;;
23782;SDS011;12071;50.850;4.446;2022-12-07T16:39:24;10.35;;;4.38;;
23782;SDS011;12071;50.850;4.446;2022-12-07T16:41:50;7.38;;;4.28;;
23782;SDS011;12071;50.850;4.446;2022-12-07T16:44:17;13.57;;;4.32;;
23782;SDS011;12071;50.850;4.446;2022-12-07T16:46:43;6.13;;;3.95;;
23782;SDS011;12071;50.850;4.446;2022-12-07T16:49:14;9.32;;;4.28;;
23782;SDS011;12071;50.850;4.446;2022-12-07T16:51:41;8.45;;;4.03;;
23782;SDS011;12071;50.850;4.446;2022-12-07T16:54:10;8.88;;;4.25;;
23782;SDS011;12071;50.850;4.446;2022-12-07T16:56:37;11.93;;;4.80;;
23782;SDS011;12071;50.850;4.446;2022-12-07T16:59:03;8.70;;;4.97;;
23782;SDS011;12071;50.850;4.446;2022-12-07T17:01:28;12.45;;;5.20;;
23782;SDS011;12071;50.850;4.446;2022-12-07T17:03:54;8.82;;;4.53;;
23782;SDS011;12071;50.850;4.446;2022-12-07T17:06:22;10.63;;;4.50;;
23782;SDS011;12071;50.850;4.446;2022-12-07T17:08:50;9.80;;;4.95;;
23782;SDS011;12071;50.850;4.446;2022-12-07T17:11:18;12.63;;;4.93;;